createdAt,value
2023-01-29T16:12:54.891Z,100261.13
2023-01-29T16:13:57.763Z,100256.72
2023-01-29T16:15:01.433Z,100253.31
2023-01-29T16:16:16.676Z,100269.66
2023-01-29T16:17:38.250Z,100262.75
2023-01-29T16:18:54.185Z,100262.66
2023-01-29T16:20:01.523Z,100265.13
2023-01-29T16:21:12.959Z,100261.63
2023-01-29T16:22:16.418Z,100261.63
2023-01-29T16:23:22.616Z,100258.16
2023-01-29T16:24:25.722Z,100253.00
2023-01-29T16:25:30.452Z,100259.06
2023-01-29T16:26:35.821Z,100253.00
2023-01-29T16:27:38.144Z,100259.84
2023-01-29T16:28:42.031Z,100251.16
2023-01-29T16:29:44.022Z,100261.50
2023-01-29T16:30:46.062Z,100256.34
2023-01-29T16:31:51.358Z,100256.25
2023-01-29T16:32:53.887Z,100256.25
2023-01-29T16:33:57.969Z,100254.47
2023-01-29T16:35:00.623Z,100258.81
2023-01-29T16:36:10.605Z,100256.25
2023-01-29T16:37:23.536Z,100263.13
2023-01-29T16:38:31.770Z,100258.75
2023-01-29T16:39:43.518Z,100250.97
2023-01-29T16:41:06.336Z,100255.25
2023-01-29T16:42:12.462Z,100256.06
2023-01-29T16:43:17.215Z,100250.00
2023-01-29T16:44:19.130Z,100248.13
2023-01-29T16:45:33.194Z,100242.00
2023-01-29T16:46:45.780Z,100237.59
2023-01-29T16:48:01.714Z,100238.38
2023-01-29T16:49:43.525Z,100235.69
2023-01-29T16:50:54.664Z,100248.50
2023-01-29T16:52:15.680Z,100237.97
2023-01-29T16:53:17.789Z,100243.97
2023-01-29T16:54:24.671Z,100236.94
2023-01-29T16:55:32.599Z,100232.56
2023-01-29T16:56:35.429Z,100237.63
2023-01-29T16:57:40.514Z,100236.72
2023-01-29T16:58:49.536Z,100240.97
2023-01-29T16:59:55.796Z,100241.75
2023-01-29T17:01:18.767Z,100237.44
2023-01-29T17:02:38.821Z,100236.50
2023-01-29T17:03:42.114Z,100236.41
2023-01-29T17:04:46.826Z,100224.31
2023-01-29T17:05:51.064Z,100234.56
2023-01-29T17:06:59.294Z,100234.44
2023-01-29T17:08:01.654Z,100222.28
2023-01-29T17:09:04.916Z,100226.50
2023-01-29T17:10:07.904Z,100222.88
2023-01-29T17:11:11.178Z,100217.69
2023-01-29T17:12:21.748Z,100221.84
2023-01-29T17:13:38.645Z,100219.28
2023-01-29T17:14:43.652Z,100219.16
2023-01-29T17:15:47.452Z,100206.22
2023-01-29T17:16:52.497Z,100209.50
2023-01-29T17:17:54.526Z,100205.13
2023-01-29T17:18:56.730Z,100203.31
2023-01-29T17:20:15.997Z,100201.59
2023-01-29T17:21:18.319Z,100208.41
2023-01-29T17:22:20.357Z,100200.56
2023-01-29T17:23:23.637Z,100199.75
2023-01-29T17:24:28.581Z,100205.72
2023-01-29T17:25:30.550Z,100197.97
2023-01-29T17:26:32.700Z,100197.97
2023-01-29T17:27:34.645Z,100191.03
2023-01-29T17:28:37.632Z,100201.28
2023-01-29T17:29:39.610Z,100201.16
2023-01-29T17:30:42.575Z,100199.44
2023-01-29T17:31:45.415Z,100202.69
2023-01-29T17:32:47.760Z,100201.81
2023-01-29T17:33:49.769Z,100200.06
2023-01-29T17:34:51.875Z,100195.69
2023-01-29T17:35:53.848Z,100198.19
2023-01-29T17:36:57.368Z,100198.06
2023-01-29T17:37:59.258Z,100196.34
2023-01-29T17:39:01.703Z,100201.41
2023-01-29T17:40:05.410Z,100197.84
2023-01-29T17:41:27.383Z,100191.75
2023-01-29T17:42:29.382Z,100189.91
2023-01-29T17:43:31.596Z,100194.19
2023-01-29T17:44:34.499Z,100193.16
2023-01-29T17:45:36.619Z,100194.00
2023-01-29T17:46:38.757Z,100194.00
2023-01-29T17:47:40.819Z,100189.69
2023-01-29T17:48:42.883Z,100189.59
2023-01-29T17:49:44.908Z,100183.53
2023-01-29T17:50:49.727Z,100191.19
2023-01-29T17:51:56.811Z,100192.03
2023-01-29T17:52:58.795Z,100192.81
2023-01-29T17:54:00.714Z,100203.13
2023-01-29T17:55:02.946Z,100199.63
2023-01-29T17:56:05.629Z,100203.00
2023-01-29T17:57:07.683Z,100201.25
2023-01-29T17:58:24.665Z,100201.16
2023-01-29T17:59:31.091Z,100201.97
2023-01-29T18:00:33.140Z,100195.88
2023-01-29T18:01:35.136Z,100199.28
2023-01-29T18:02:37.344Z,100197.50
2023-01-29T18:03:39.305Z,100196.59
2023-01-29T18:04:41.719Z,100200.81
2023-01-29T18:05:45.182Z,100199.09
2023-01-29T18:06:49.452Z,100202.53
2023-01-29T18:07:52.371Z,100199.06
2023-01-29T18:08:54.817Z,100200.69
2023-01-29T18:09:56.921Z,100201.44
2023-01-29T18:10:59.536Z,100201.50
2023-01-29T18:12:01.518Z,100193.66
2023-01-29T18:13:03.601Z,100199.63
2023-01-29T18:14:14.209Z,100194.44
2023-01-29T18:15:16.835Z,100196.94
2023-01-29T18:16:22.045Z,100195.06
2023-01-29T18:17:24.107Z,100193.19
2023-01-29T18:18:25.960Z,100196.50
2023-01-29T18:19:28.021Z,100195.50
2023-01-29T18:20:30.486Z,100191.19
2023-01-29T18:21:32.507Z,100184.31
2023-01-29T18:22:34.529Z,100191.13
2023-01-29T18:23:36.684Z,100195.41
2023-01-29T18:24:38.665Z,100189.38
2023-01-29T18:25:40.746Z,100193.53
2023-01-29T18:26:42.921Z,100183.28
2023-01-29T18:27:45.982Z,100184.88
2023-01-29T18:28:47.975Z,100191.56
2023-01-29T18:29:50.568Z,100201.84
2023-01-29T18:30:52.850Z,100188.03
2023-01-29T18:31:54.845Z,100191.47
2023-01-29T18:32:57.759Z,100204.25
2023-01-29T18:33:59.999Z,100209.28
2023-01-29T18:35:02.309Z,100195.50
2023-01-29T18:36:06.845Z,100186.84
2023-01-29T18:37:10.392Z,100199.66
2023-01-29T18:38:13.520Z,100192.81
2023-01-29T18:39:15.916Z,100197.13
2023-01-29T18:40:18.429Z,100191.94
2023-01-29T18:41:20.455Z,100188.47
2023-01-29T18:42:22.447Z,100196.13
2023-01-29T18:43:26.240Z,100192.69
2023-01-29T18:44:29.841Z,100184.97
2023-01-29T18:45:32.258Z,100190.13
2023-01-29T18:46:34.198Z,100189.28
2023-01-29T18:47:36.090Z,100188.47
2023-01-29T18:48:38.249Z,100193.59
2023-01-29T18:49:40.359Z,100183.31
2023-01-29T18:50:42.251Z,100193.59
2023-01-29T18:51:44.617Z,100187.72
2023-01-29T18:52:46.681Z,100189.41
2023-01-29T18:53:52.348Z,100184.25
2023-01-29T18:54:54.524Z,100189.41
2023-01-29T18:56:05.742Z,100191.97
2023-01-29T18:57:14.448Z,100193.59
2023-01-29T18:58:41.761Z,100193.59
2023-01-29T18:59:44.508Z,100195.25
2023-01-29T19:00:47.199Z,100190.00
2023-01-29T19:01:49.251Z,100196.88
2023-01-29T19:02:51.228Z,100195.00
2023-01-29T19:03:54.314Z,100200.03
2023-01-29T19:04:56.505Z,100191.38
2023-01-29T19:06:02.124Z,100182.69
2023-01-29T19:07:05.023Z,100179.97
2023-01-29T19:08:07.100Z,100179.09
2023-01-29T19:09:09.053Z,100185.84
2023-01-29T19:10:13.013Z,100185.84
2023-01-29T19:11:15.131Z,100188.44
2023-01-29T19:12:17.577Z,100185.66
2023-01-29T19:13:19.648Z,100190.75
2023-01-29T19:14:21.688Z,100184.72
2023-01-29T19:15:23.786Z,100181.28
2023-01-29T19:16:26.004Z,100183.88
2023-01-29T19:17:28.132Z,100179.50
2023-01-29T19:18:30.311Z,100185.47
2023-01-29T19:19:32.643Z,100187.09
2023-01-29T19:20:34.767Z,100183.56
2023-01-29T19:21:37.315Z,100183.56
2023-01-29T19:22:40.283Z,100186.03
2023-01-29T19:23:43.932Z,100178.25
2023-01-29T19:24:46.216Z,100176.44
2023-01-29T19:25:48.382Z,100179.00
2023-01-29T19:26:50.775Z,100179.84
2023-01-29T19:27:52.917Z,100176.31
2023-01-29T19:28:54.990Z,100166.03
2023-01-29T19:29:58.353Z,100172.00
2023-01-29T19:31:00.843Z,100171.03
2023-01-29T19:32:03.006Z,100164.16
2023-01-29T19:33:05.297Z,100167.41
2023-01-29T19:34:07.562Z,100166.53
2023-01-29T19:35:09.516Z,100161.34
2023-01-29T19:36:12.833Z,100169.03
2023-01-29T19:37:14.954Z,100164.69
2023-01-29T19:38:21.158Z,100163.78
2023-01-29T19:39:23.936Z,100167.09
2023-01-29T19:40:26.742Z,100167.75
2023-01-29T19:41:29.077Z,100172.84
2023-01-29T19:42:31.102Z,100170.16
2023-01-29T19:43:33.371Z,100174.28
2023-01-29T19:44:35.589Z,100172.50
2023-01-29T19:45:49.886Z,100173.34
2023-01-29T19:46:52.674Z,100181.78
2023-01-29T19:47:55.047Z,100176.50
2023-01-29T19:48:58.880Z,100176.38
2023-01-29T19:50:01.054Z,100171.94
2023-01-29T19:51:07.029Z,100173.59
2023-01-29T19:52:35.866Z,100178.72
2023-01-29T19:53:46.569Z,100173.63
2023-01-29T19:54:48.981Z,100172.72
2023-01-29T19:56:02.462Z,100170.06
2023-01-29T19:57:04.778Z,100164.88
2023-01-29T19:58:06.808Z,100159.66
2023-01-29T19:59:08.783Z,100157.09
2023-01-29T20:00:12.418Z,100158.75
2023-01-29T20:01:21.111Z,100149.25
2023-01-29T20:02:25.002Z,100160.34
2023-01-29T20:03:29.040Z,100161.97
2023-01-29T20:04:31.275Z,100156.81
2023-01-29T20:05:36.215Z,100154.34
2023-01-29T20:06:38.609Z,100151.63
2023-01-29T20:07:42.584Z,100148.19
2023-01-29T20:08:47.539Z,100146.50
2023-01-29T20:09:51.938Z,100148.13
2023-01-29T20:10:54.572Z,100137.81
2023-01-29T20:11:56.601Z,100146.28
2023-01-29T20:12:58.632Z,100136.84
2023-01-29T20:14:00.725Z,100138.53
2023-01-29T20:15:02.835Z,100136.75
2023-01-29T20:16:06.209Z,100137.66
2023-01-29T20:17:08.204Z,100141.03
2023-01-29T20:18:12.201Z,100140.16
2023-01-29T20:19:15.299Z,100137.38
2023-01-29T20:20:17.994Z,100136.59
2023-01-29T20:21:22.547Z,100136.44
2023-01-29T20:22:26.733Z,100140.75
2023-01-29T20:23:37.822Z,100131.31
2023-01-29T20:24:42.746Z,100131.38
2023-01-29T20:25:45.456Z,100136.59
2023-01-29T20:26:47.508Z,100140.03
2023-01-29T20:27:49.591Z,100146.91
2023-01-29T20:28:51.890Z,100141.75
2023-01-29T20:29:53.880Z,100136.63
2023-01-29T20:30:58.314Z,100137.38
2023-01-29T20:32:02.400Z,100134.88
2023-01-29T20:33:05.398Z,100135.75
2023-01-29T20:34:07.347Z,100130.63
2023-01-29T20:35:09.906Z,100127.22
2023-01-29T20:36:13.758Z,100130.63
2023-01-29T20:37:16.013Z,100127.22
2023-01-29T20:38:17.944Z,100121.31
2023-01-29T20:39:20.103Z,100122.91
2023-01-29T20:40:22.527Z,100125.50
2023-01-29T20:41:24.853Z,100123.59
2023-01-29T20:42:26.883Z,100123.66
2023-01-29T20:43:28.862Z,100121.84
2023-01-29T20:44:31.097Z,100119.97
2023-01-29T20:45:33.559Z,100112.13
2023-01-29T20:46:35.618Z,100126.69
2023-01-29T20:47:37.928Z,100126.69
2023-01-29T20:48:40.237Z,100123.22
2023-01-29T20:49:42.297Z,100124.69
2023-01-29T20:50:44.753Z,100122.03
2023-01-29T20:51:46.881Z,100119.41
2023-01-29T20:52:49.057Z,100125.44
2023-01-29T20:53:51.739Z,100117.69
2023-01-29T20:54:54.026Z,100122.81
2023-01-29T20:55:56.085Z,100122.72
2023-01-29T20:56:58.450Z,100117.53
2023-01-29T20:58:05.466Z,100123.56
2023-01-29T20:59:08.904Z,100122.69
2023-01-29T21:00:12.406Z,100115.84
2023-01-29T21:01:16.995Z,100121.91
2023-01-29T21:02:19.195Z,100122.72
2023-01-29T21:03:21.377Z,100124.41
2023-01-29T21:04:23.953Z,100120.13
2023-01-29T21:05:26.277Z,100130.28
2023-01-29T21:06:29.836Z,100126.03
2023-01-29T21:07:32.075Z,100128.53
2023-01-29T21:08:35.560Z,100117.28
2023-01-29T21:09:37.623Z,100121.50
2023-01-29T21:10:40.998Z,100125.75
2023-01-29T21:11:45.271Z,100124.16
2023-01-29T21:12:47.303Z,100115.50
2023-01-29T21:13:51.196Z,100123.19
2023-01-29T21:14:53.199Z,100117.28
2023-01-29T21:15:55.375Z,100122.41
2023-01-29T21:16:57.862Z,100127.53
2023-01-29T21:18:04.320Z,100132.66
2023-01-29T21:19:07.108Z,100136.97
2023-01-29T21:20:10.055Z,100134.41
2023-01-29T21:21:12.188Z,100136.03
2023-01-29T21:22:14.292Z,100136.84
2023-01-29T21:23:16.351Z,100128.19
2023-01-29T21:24:19.124Z,100129.00
2023-01-29T21:25:21.827Z,100125.63
2023-01-29T21:26:24.396Z,100128.19
2023-01-29T21:27:26.620Z,100126.44
2023-01-29T21:28:28.734Z,100126.50
2023-01-29T21:29:30.939Z,100127.22
2023-01-29T21:30:34.313Z,100135.88
2023-01-29T21:31:36.389Z,100135.00
2023-01-29T21:32:38.716Z,100141.03
2023-01-29T21:33:41.166Z,100138.31
2023-01-29T21:34:43.211Z,100145.28
2023-01-29T21:35:45.498Z,100148.72
2023-01-29T21:36:47.570Z,100144.41
2023-01-29T21:37:49.661Z,100153.78
2023-01-29T21:38:51.668Z,100152.09
2023-01-29T21:39:53.680Z,100157.22
2023-01-29T21:41:00.397Z,100150.50
2023-01-29T21:42:21.077Z,100144.47
2023-01-29T21:43:23.240Z,100137.66
2023-01-29T21:44:25.260Z,100138.41
2023-01-29T21:45:27.515Z,100142.63
2023-01-29T21:46:29.506Z,100136.56
2023-01-29T21:47:31.657Z,100145.13
2023-01-29T21:48:33.672Z,100144.28
2023-01-29T21:49:35.741Z,100150.28
2023-01-29T21:50:38.212Z,100150.19
2023-01-29T21:51:41.792Z,100153.56
2023-01-29T21:52:43.942Z,100151.88
2023-01-29T21:53:46.163Z,100157.69
2023-01-29T21:54:49.257Z,100137.09
2023-01-29T21:55:52.166Z,100148.31
2023-01-29T21:56:54.220Z,100142.22
2023-01-29T21:57:56.600Z,100149.25
2023-01-29T21:59:00.926Z,100145.13
2023-01-29T22:00:04.218Z,100135.88
2023-01-29T22:01:18.516Z,100133.41
2023-01-29T22:02:31.280Z,100135.38
2023-01-29T22:03:33.316Z,100126.03
2023-01-29T22:04:35.433Z,100131.31
2023-01-29T22:05:37.535Z,100122.81
2023-01-29T22:06:39.568Z,100123.69
2023-01-29T22:07:41.547Z,100111.03
2023-01-29T22:08:43.790Z,100118.72
2023-01-29T22:09:45.813Z,100131.69
2023-01-29T22:10:48.167Z,100121.56
2023-01-29T22:11:50.332Z,100114.97
2023-01-29T22:12:52.470Z,100116.56
2023-01-29T22:13:54.580Z,100113.94
2023-01-29T22:14:56.639Z,100109.00
2023-01-29T22:15:58.664Z,100112.53
2023-01-29T22:17:01.024Z,100113.53
2023-01-29T22:18:03.094Z,100111.16
2023-01-29T22:19:05.283Z,100113.88
2023-01-29T22:20:09.882Z,100112.03
2023-01-29T22:21:11.920Z,100117.38
2023-01-29T22:22:15.416Z,100108.13
2023-01-29T22:23:17.468Z,100105.56
2023-01-29T22:24:20.928Z,100107.25
2023-01-29T22:25:23.014Z,100116.75
2023-01-29T22:26:25.208Z,100110.75
2023-01-29T22:27:27.297Z,100110.88
2023-01-29T22:28:29.197Z,100116.00
2023-01-29T22:29:31.204Z,100116.88
2023-01-29T22:30:33.223Z,100110.00
2023-01-29T22:31:35.457Z,100110.00
2023-01-29T22:32:37.662Z,100103.97
2023-01-29T22:33:39.809Z,100092.09
2023-01-29T22:34:41.884Z,100097.97
2023-01-29T22:35:43.976Z,100085.13
2023-01-29T22:36:46.206Z,100091.06
2023-01-29T22:37:48.544Z,100077.47
2023-01-29T22:38:50.728Z,100074.91
2023-01-29T22:39:52.775Z,100074.00
2023-01-29T22:40:56.514Z,100064.50
2023-01-29T22:41:58.632Z,100056.88
2023-01-29T22:43:00.676Z,100060.19
2023-01-29T22:44:02.751Z,100054.00
2023-01-29T22:45:05.075Z,100048.41
2023-01-29T22:46:08.979Z,100047.38
2023-01-29T22:47:11.152Z,100053.09
2023-01-29T22:48:13.152Z,100037.56
2023-01-29T22:49:15.906Z,100058.22
2023-01-29T22:50:18.298Z,100067.78
2023-01-29T22:51:20.743Z,100102.19
2023-01-29T22:52:23.004Z,100104.22
2023-01-29T22:53:25.330Z,100088.31
2023-01-29T22:54:27.414Z,100087.75
2023-01-29T22:55:29.654Z,100085.38
2023-01-29T22:56:31.683Z,100088.84
2023-01-29T22:57:33.886Z,100083.78
2023-01-29T22:58:36.297Z,100087.34
2023-01-29T22:59:38.735Z,100084.91
2023-01-29T23:00:40.722Z,100087.69
2023-01-29T23:01:42.723Z,100082.56
2023-01-29T23:02:46.997Z,100079.28
2023-01-29T23:03:49.480Z,100071.81
2023-01-29T23:04:51.550Z,100080.47
2023-01-29T23:05:53.796Z,100077.09
2023-01-29T23:06:55.859Z,100078.06
2023-01-29T23:07:57.805Z,100085.03
2023-01-29T23:08:59.968Z,100078.28
2023-01-29T23:10:02.076Z,100084.38
2023-01-29T23:11:14.490Z,100075.75
2023-01-29T23:12:17.091Z,100077.53
2023-01-29T23:13:19.669Z,100069.06
2023-01-29T23:14:21.998Z,100071.66
2023-01-29T23:15:24.152Z,100069.88
2023-01-29T23:16:28.356Z,100066.25
2023-01-29T23:17:30.504Z,100061.00
2023-01-29T23:18:32.576Z,100067.75
2023-01-29T23:19:34.860Z,100061.75
2023-01-29T23:20:36.975Z,100063.44
2023-01-29T23:21:39.777Z,100062.53
2023-01-29T23:22:42.222Z,100068.47
2023-01-29T23:23:45.105Z,100064.19
2023-01-29T23:24:47.372Z,100067.63
2023-01-29T23:26:08.074Z,100065.06
2023-01-29T23:27:16.422Z,100066.00
2023-01-29T23:28:18.521Z,100061.75
2023-01-29T23:29:21.367Z,100067.75
2023-01-29T23:30:23.409Z,100063.50
2023-01-29T23:31:26.387Z,100054.03
2023-01-29T23:32:28.342Z,100064.31
2023-01-29T23:33:30.427Z,100060.91
2023-01-29T23:34:32.397Z,100062.50
2023-01-29T23:35:34.616Z,100064.25
2023-01-29T23:36:36.807Z,100060.69
2023-01-29T23:37:38.760Z,100055.53
2023-01-29T23:38:40.816Z,100052.84
2023-01-29T23:39:42.867Z,100054.53
2023-01-29T23:40:47.190Z,100051.97
2023-01-29T23:41:49.100Z,100044.25
2023-01-29T23:42:51.169Z,100047.59
2023-01-29T23:43:53.503Z,100048.44
2023-01-29T23:44:55.468Z,100051.03
2023-01-29T23:45:57.659Z,100042.44
2023-01-29T23:47:00.196Z,100052.72
2023-01-29T23:48:02.340Z,100049.28
2023-01-29T23:49:04.748Z,100050.28
2023-01-29T23:50:07.290Z,100041.69
2023-01-29T23:51:09.387Z,100047.69
2023-01-29T23:52:11.650Z,100043.31
2023-01-29T23:53:14.161Z,100038.38
2023-01-29T23:54:16.927Z,100036.47
2023-01-29T23:55:18.943Z,100038.19
2023-01-29T23:56:21.046Z,100035.59
2023-01-29T23:57:23.051Z,100035.06
2023-01-29T23:58:25.985Z,100032.50
2023-01-29T23:59:29.194Z,100032.53
